Time;durP1;ratioP1;P1;durP2;ratioP2;P2;SDS_P1;SDS_P2;PMS_P1;PMS_P2;Temp;Humidity;BMP_temperature;BMP_pressure;BME280_temperature;BME280_humidity;BME280_pressure;Samples;Min_cycle;Max_cycle;Signal;HPM_P1;HPM_P2
2024/03/01 00:01:09;;;;;;;24.10;21.50;;;;;;;;;;6220327;23;20541;-79
2024/03/01 00:03:37;;;;;;;27.30;22.30;;;;;;;;;;6246653;23;20685;-80
2024/03/01 00:06:05;;;;;;;26.40;22.53;;;;;;;;;;6246819;23;20189;-80
2024/03/01 00:08:33;;;;;;;26.27;21.97;;;;;;;;;;6246670;23;20211;-80
2024/03/01 00:11:00;;;;;;;27.07;22.87;;;;;;;;;;6246841;23;20247;-80
2024/03/01 00:13:28;;;;;;;24.97;22.30;;;;;;;;;;6246616;23;20171;-80
2024/03/01 00:15:57;;;;;;;25.90;21.93;;;;;;;;;;6246684;23;20161;-80
2024/03/01 00:18:26;;;;;;;26.57;22.20;;;;;;;;;;6246536;23;20193;-79
2024/03/01 00:20:54;;;;;;;27.40;22.63;;;;;;;;;;6246518;23;20268;-80
2024/03/01 00:23:21;;;;;;;28.37;23.33;;;;;;;;;;6247276;23;20216;-79
2024/03/01 00:25:49;;;;;;;29.07;23.57;;;;;;;;;;6247565;23;20192;-80
2024/03/01 00:28:16;;;;;;;28.27;23.73;;;;;;;;;;6248342;23;20180;-79
2024/03/01 00:30:44;;;;;;;26.77;22.53;;;;;;;;;;6221671;23;20533;-80
2024/03/01 00:33:12;;;;;;;25.37;21.63;;;;;;;;;;6247858;23;20167;-80
2024/03/01 00:35:39;;;;;;;29.97;24.17;;;;;;;;;;6247715;23;20156;-80
2024/03/01 00:38:07;;;;;;;30.03;22.83;;;;;;;;;;6247457;23;20165;-79
2024/03/01 00:40:34;;;;;;;27.70;23.37;;;;;;;;;;6222878;23;20496;-80
2024/03/01 00:43:02;;;;;;;30.73;23.67;;;;;;;;;;6249851;23;20180;-79
2024/03/01 00:45:29;;;;;;;28.07;23.60;;;;;;;;;;6250433;23;20179;-80
2024/03/01 00:47:56;;;;;;;28.60;24.17;;;;;;;;;;6250751;23;20192;-80
2024/03/01 00:50:25;;;;;;;29.50;23.43;;;;;;;;;;6250201;23;20166;-80
2024/03/01 00:52:52;;;;;;;30.27;23.70;;;;;;;;;;6250446;23;20187;-80
2024/03/01 00:55:19;;;;;;;29.17;24.00;;;;;;;;;;6250904;23;20252;-80
2024/03/01 00:57:46;;;;;;;27.73;23.37;;;;;;;;;;6249997;23;20219;-80
2024/03/01 01:00:13;;;;;;;27.10;22.83;;;;;;;;;;6250032;23;20161;-80
2024/03/01 01:02:42;;;;;;;26.90;23.80;;;;;;;;;;6223872;23;20199;-79
2024/03/01 01:05:10;;;;;;;29.13;24.13;;;;;;;;;;6250281;23;20196;-79
2024/03/01 01:07:37;;;;;;;28.77;23.90;;;;;;;;;;6223432;23;20176;-80
2024/03/01 01:10:06;;;;;;;31.63;23.57;;;;;;;;;;6223602;23;20219;-80
2024/03/01 01:12:34;;;;;;;30.20;23.43;;;;;;;;;;6249837;23;20179;-79
2024/03/01 01:15:03;;;;;;;27.47;22.97;;;;;;;;;;6249685;23;20165;-80
2024/03/01 01:17:30;;;;;;;26.40;22.77;;;;;;;;;;6249571;23;20614;-79
2024/03/01 01:19:59;;;;;;;28.23;23.10;;;;;;;;;;6249969;23;20493;-80
2024/03/01 01:22:26;;;;;;;27.77;23.03;;;;;;;;;;6249233;23;20703;-79
2024/03/01 01:24:54;;;;;;;27.27;22.50;;;;;;;;;;6249605;23;20164;-80
2024/03/01 01:27:21;;;;;;;30.93;25.77;;;;;;;;;;6249953;23;20184;-80
2024/03/01 01:29:48;;;;;;;31.10;24.27;;;;;;;;;;6223435;23;20204;-80
2024/03/01 01:32:15;;;;;;;29.80;24.63;;;;;;;;;;6249914;23;20172;-80
2024/03/01 01:34:42;;;;;;;29.87;23.53;;;;;;;;;;6249740;23;20234;-79
2024/03/01 01:37:09;;;;;;;28.60;24.03;;;;;;;;;;6250106;23;20157;-80
2024/03/01 01:39:37;;;;;;;30.20;23.93;;;;;;;;;;6249955;23;20249;-79
2024/03/01 01:42:04;;;;;;;28.67;23.93;;;;;;;;;;6249805;23;20206;-80
2024/03/01 01:44:32;;;;;;;27.37;23.00;;;;;;;;;;6249465;23;20165;-79
2024/03/01 01:47:00;;;;;;;27.03;23.77;;;;;;;;;;6250342;23;20169;-80
2024/03/01 01:49:28;;;;;;;28.90;23.90;;;;;;;;;;6222903;23;20172;-80
2024/03/01 01:51:57;;;;;;;29.90;23.80;;;;;;;;;;6249767;23;20169;-80
2024/03/01 01:54:26;;;;;;;28.13;24.33;;;;;;;;;;6223439;23;20173;-80
2024/03/01 01:56:53;;;;;;;28.10;23.20;;;;;;;;;;6249731;23;20224;-80
2024/03/01 01:59:20;;;;;;;30.90;24.40;;;;;;;;;;6249990;23;20211;-80
2024/03/01 02:01:50;;;;;;;27.37;23.17;;;;;;;;;;6249294;23;20165;-79
2024/03/01 02:04:18;;;;;;;27.90;23.10;;;;;;;;;;6249199;23;20235;-80
2024/03/01 02:06:45;;;;;;;29.13;23.40;;;;;;;;;;6248163;23;20157;-79
2024/03/01 02:09:13;;;;;;;28.03;23.23;;;;;;;;;;6245186;23;20172;-78
2024/03/01 02:11:40;;;;;;;25.97;22.47;;;;;;;;;;6244744;23;20165;-78
2024/03/01 02:14:09;;;;;;;25.77;22.37;;;;;;;;;;6243869;23;20171;-77
2024/03/01 02:16:37;;;;;;;28.67;22.57;;;;;;;;;;6244692;23;20171;-78
2024/03/01 02:19:06;;;;;;;26.80;22.83;;;;;;;;;;6244865;23;20169;-79
2024/03/01 02:21:35;;;;;;;26.07;22.67;;;;;;;;;;6245089;23;20184;-79
2024/03/01 02:24:04;;;;;;;29.37;23.93;;;;;;;;;;6245361;23;20271;-79
2024/03/01 02:26:32;;;;;;;26.50;22.77;;;;;;;;;;6245742;23;20775;-79
2024/03/01 02:29:01;;;;;;;26.03;22.00;;;;;;;;;;6245675;23;20557;-77
2024/03/01 02:31:29;;;;;;;29.13;23.10;;;;;;;;;;6219179;23;20169;-79
2024/03/01 02:33:57;;;;;;;27.47;23.13;;;;;;;;;;6245413;23;20165;-78
2024/03/01 02:36:25;;;;;;;29.23;23.73;;;;;;;;;;6245529;23;20255;-79
2024/03/01 02:38:52;;;;;;;30.53;24.50;;;;;;;;;;6245549;23;20529;-79
2024/03/01 02:41:20;;;;;;;29.70;25.77;;;;;;;;;;6244680;23;20175;-78
2024/03/01 02:43:47;;;;;;;32.17;24.60;;;;;;;;;;6244115;23;20183;-77
2024/03/01 02:46:14;;;;;;;29.93;24.83;;;;;;;;;;6244577;23;20157;-77
2024/03/01 02:48:41;;;;;;;31.57;24.03;;;;;;;;;;6244280;23;20714;-77
2024/03/01 02:51:09;;;;;;;29.83;24.10;;;;;;;;;;6244603;23;20161;-77
2024/03/01 02:53:36;;;;;;;29.20;24.00;;;;;;;;;;6244280;23;20172;-77
2024/03/01 02:56:03;;;;;;;30.00;24.50;;;;;;;;;;6244541;23;20167;-80
2024/03/01 02:58:31;;;;;;;27.50;23.63;;;;;;;;;;6244082;23;20165;-77
2024/03/01 03:00:58;;;;;;;30.23;23.00;;;;;;;;;;6244435;23;20165;-77
2024/03/01 03:03:26;;;;;;;25.80;22.80;;;;;;;;;;6243763;23;20185;-78
2024/03/01 03:05:53;;;;;;;26.57;22.47;;;;;;;;;;6244793;23;20588;-78
2024/03/01 03:08:22;;;;;;;26.60;22.87;;;;;;;;;;6217982;23;20169;-80
2024/03/01 03:10:49;;;;;;;25.03;21.57;;;;;;;;;;6218439;23;20160;-79
2024/03/01 03:13:17;;;;;;;25.10;21.87;;;;;;;;;;6244906;23;20176;-79
2024/03/01 03:15:45;;;;;;;26.93;22.23;;;;;;;;;;6245043;23;20179;-77
2024/03/01 03:18:12;;;;;;;25.00;21.93;;;;;;;;;;6244601;23;20180;-78
2024/03/01 03:20:40;;;;;;;24.00;21.10;;;;;;;;;;6244545;23;20638;-78
2024/03/01 03:23:08;;;;;;;24.53;20.90;;;;;;;;;;6244242;23;20677;-78
2024/03/01 03:25:36;;;;;;;26.47;21.70;;;;;;;;;;6244616;23;20193;-78
2024/03/01 03:28:03;;;;;;;26.00;21.47;;;;;;;;;;6244523;23;20219;-78
2024/03/01 03:30:30;;;;;;;23.90;21.07;;;;;;;;;;6243890;23;20161;-77
2024/03/01 03:32:59;;;;;;;26.30;21.80;;;;;;;;;;6244613;23;20177;-78
2024/03/01 03:35:26;;;;;;;23.77;20.93;;;;;;;;;;6244198;23;20247;-78
2024/03/01 03:37:53;;;;;;;27.10;22.37;;;;;;;;;;6244437;23;20172;-78
2024/03/01 03:40:21;;;;;;;25.63;21.80;;;;;;;;;;6244466;23;20167;-77
2024/03/01 03:42:48;;;;;;;24.23;20.60;;;;;;;;;;6244679;23;20215;-79
2024/03/01 03:45:16;;;;;;;23.90;21.20;;;;;;;;;;6245910;23;20207;-79
2024/03/01 03:47:45;;;;;;;26.83;22.00;;;;;;;;;;6222957;23;20579;-80
2024/03/01 03:50:13;;;;;;;26.40;21.60;;;;;;;;;;6248967;23;20200;-80
2024/03/01 03:52:41;;;;;;;25.43;21.07;;;;;;;;;;6250413;23;20168;-80
2024/03/01 03:55:08;;;;;;;27.07;22.67;;;;;;;;;;6250013;23;20243;-80
2024/03/01 03:57:37;;;;;;;24.33;21.73;;;;;;;;;;6249880;23;20168;-80
2024/03/01 04:00:09;;;;;;;29.77;22.67;;;;;;;;;;6250085;23;20227;-79
2024/03/01 04:02:37;;;;;;;28.40;23.67;;;;;;;;;;6250084;23;20176;-80
2024/03/01 04:05:05;;;;;;;30.33;23.97;;;;;;;;;;6249575;23;20218;-80
2024/03/01 04:07:34;;;;;;;28.50;23.97;;;;;;;;;;6223893;23;20165;-79
2024/03/01 04:10:09;;;;;;;29.13;23.93;;;;;;;;;;6222859;23;20165;-80
2024/03/01 04:12:36;;;;;;;30.33;25.37;;;;;;;;;;6250043;23;20169;-80
2024/03/01 04:15:07;;;;;;;28.80;24.80;;;;;;;;;;6253691;23;20175;-80
2024/03/01 04:17:33;;;;;;;30.97;24.87;;;;;;;;;;6253833;23;20145;-79
2024/03/01 04:20:05;;;;;;;32.27;25.23;;;;;;;;;;6253596;23;20240;-80
2024/03/01 04:22:33;;;;;;;30.77;24.77;;;;;;;;;;6254834;23;20188;-80
2024/03/01 04:25:02;;;;;;;31.63;23.93;;;;;;;;;;6254598;23;20168;-80
2024/03/01 04:27:30;;;;;;;27.63;24.13;;;;;;;;;;6254398;23;20292;-80
2024/03/01 04:29:58;;;;;;;28.23;24.00;;;;;;;;;;6227559;23;20504;-80
2024/03/01 04:32:27;;;;;;;26.73;23.90;;;;;;;;;;6254361;23;20184;-80
2024/03/01 04:34:55;;;;;;;27.73;24.20;;;;;;;;;;6253638;23;20203;-79
2024/03/01 04:37:23;;;;;;;32.63;24.60;;;;;;;;;;6254137;23;20178;-80
2024/03/01 04:39:50;;;;;;;30.93;24.80;;;;;;;;;;6254154;23;20212;-80
2024/03/01 04:42:18;;;;;;;28.87;25.77;;;;;;;;;;6254591;23;20187;-80
2024/03/01 04:44:45;;;;;;;31.23;25.27;;;;;;;;;;6254536;23;20243;-80
2024/03/01 04:47:13;;;;;;;31.50;26.03;;;;;;;;;;6228066;23;20161;-80
2024/03/01 04:49:43;;;;;;;29.53;25.17;;;;;;;;;;6227836;23;20178;-80
2024/03/01 04:52:11;;;;;;;31.90;24.80;;;;;;;;;;6227801;23;20682;-80
2024/03/01 04:54:38;;;;;;;31.33;26.27;;;;;;;;;;6254739;23;20567;-80
2024/03/01 04:57:07;;;;;;;27.83;24.23;;;;;;;;;;6254729;23;20175;-80
2024/03/01 04:59:38;;;;;;;28.80;24.87;;;;;;;;;;6228855;23;20192;-80
2024/03/01 05:02:08;;;;;;;30.87;26.00;;;;;;;;;;6228785;23;20229;-80
2024/03/01 05:04:36;;;;;;;32.03;25.77;;;;;;;;;;6253865;23;20197;-80
2024/03/01 05:07:10;;;;;;;30.00;25.53;;;;;;;;;;6254299;23;20169;-80
2024/03/01 05:09:42;;;;;;;30.03;25.40;;;;;;;;;;6254428;23;20235;-80
2024/03/01 05:12:13;;;;;;;32.63;25.00;;;;;;;;;;6254494;23;20201;-80
2024/03/01 05:14:41;;;;;;;30.43;26.27;;;;;;;;;;6254131;23;20184;-80
2024/03/01 05:17:08;;;;;;;30.70;24.70;;;;;;;;;;6254507;23;20161;-79
2024/03/01 05:19:39;;;;;;;27.40;24.33;;;;;;;;;;6253842;23;20546;-80
2024/03/01 05:22:12;;;;;;;30.33;25.13;;;;;;;;;;6253937;23;20231;-80
2024/03/01 05:24:40;;;;;;;28.70;24.17;;;;;;;;;;6254438;23;20171;-80
2024/03/01 05:27:13;;;;;;;30.40;25.23;;;;;;;;;;6252319;23;20559;-80
2024/03/01 05:29:42;;;;;;;30.87;24.80;;;;;;;;;;6253126;23;20157;-80
2024/03/01 05:32:10;;;;;;;27.83;23.30;;;;;;;;;;6252238;23;20190;-81
2024/03/01 05:34:37;;;;;;;28.77;24.33;;;;;;;;;;6253276;23;20547;-80
2024/03/01 05:37:04;;;;;;;28.33;24.30;;;;;;;;;;6252210;23;20191;-80
2024/03/01 05:39:31;;;;;;;28.40;25.33;;;;;;;;;;6252175;23;20167;-80
2024/03/01 05:41:58;;;;;;;27.70;24.80;;;;;;;;;;6225633;23;20621;-80
2024/03/01 05:44:26;;;;;;;31.33;26.40;;;;;;;;;;6252658;23;20185;-80
2024/03/01 05:46:56;;;;;;;31.60;25.80;;;;;;;;;;6253296;23;20169;-80
2024/03/01 05:49:24;;;;;;;33.03;25.63;;;;;;;;;;6253276;23;20161;-80
2024/03/01 05:51:52;;;;;;;32.47;25.83;;;;;;;;;;6253494;23;20161;-80
2024/03/01 05:54:22;;;;;;;30.20;26.00;;;;;;;;;;6227063;23;20165;-80
2024/03/01 05:56:51;;;;;;;29.20;24.43;;;;;;;;;;6253546;23;20215;-80
2024/03/01 05:59:22;;;;;;;29.80;24.80;;;;;;;;;;6253458;23;20230;-80
2024/03/01 06:01:53;;;;;;;29.10;24.70;;;;;;;;;;6253074;23;20156;-80
2024/03/01 06:04:21;;;;;;;30.10;25.67;;;;;;;;;;6252656;23;20196;-80
2024/03/01 06:06:48;;;;;;;31.53;25.60;;;;;;;;;;6253272;23;20149;-80
2024/03/01 06:12:06;;;;;;;28.83;24.50;;;;;;;;;;6244637;23;20536;-82
2024/03/01 06:14:34;;;;;;;31.00;25.00;;;;;;;;;;6192828;23;20332;-81
2024/03/01 06:17:02;;;;;;;27.90;24.97;;;;;;;;;;6241907;23;20268;-81
2024/03/01 06:19:33;;;;;;;28.47;24.17;;;;;;;;;;6216648;23;20219;-80
2024/03/01 06:22:02;;;;;;;28.97;24.97;;;;;;;;;;6214697;23;20165;-82
2024/03/01 06:24:30;;;;;;;27.50;24.03;;;;;;;;;;6217459;23;20184;-81
2024/03/01 06:26:58;;;;;;;32.30;25.20;;;;;;;;;;6216954;23;20165;-81
2024/03/01 06:29:28;;;;;;;29.20;26.07;;;;;;;;;;6214185;22;20193;-80
2024/03/01 06:31:55;;;;;;;30.47;26.53;;;;;;;;;;6241666;23;20252;-81
2024/03/01 06:34:23;;;;;;;29.73;25.50;;;;;;;;;;6243320;23;20173;-82
2024/03/01 06:36:51;;;;;;;30.00;26.50;;;;;;;;;;6216002;23;20168;-80
2024/03/01 06:39:18;;;;;;;31.93;28.17;;;;;;;;;;6241800;23;20161;-79
2024/03/01 06:41:45;;;;;;;33.27;28.97;;;;;;;;;;6216980;23;20173;-81
2024/03/01 06:44:12;;;;;;;34.10;29.40;;;;;;;;;;6216331;23;20196;-82
2024/03/01 06:46:42;;;;;;;36.83;32.63;;;;;;;;;;6216787;23;20173;-80
2024/03/01 06:49:10;;;;;;;35.80;30.70;;;;;;;;;;6191566;23;20219;-84
2024/03/01 06:51:37;;;;;;;35.13;31.00;;;;;;;;;;6243679;23;20165;-80
2024/03/01 06:54:04;;;;;;;36.17;31.00;;;;;;;;;;6241023;23;20165;-80
2024/03/01 06:56:38;;;;;;;35.53;30.70;;;;;;;;;;6216174;23;20169;-80
2024/03/01 06:59:07;;;;;;;32.93;28.97;;;;;;;;;;6243166;23;20175;-82
2024/03/01 07:01:34;;;;;;;36.03;28.77;;;;;;;;;;6191322;23;20196;-81
2024/03/01 07:04:02;;;;;;;34.47;29.27;;;;;;;;;;6215385;23;20197;-79
2024/03/01 07:06:30;;;;;;;33.30;28.20;;;;;;;;;;6242903;23;20161;-79
2024/03/01 07:08:59;;;;;;;33.90;29.77;;;;;;;;;;6242865;23;20218;-79
2024/03/01 07:11:29;;;;;;;32.67;27.73;;;;;;;;;;6210808;23;20205;-79
2024/03/01 07:13:56;;;;;;;33.50;28.33;;;;;;;;;;6212626;23;20175;-81
2024/03/01 07:16:32;;;;;;;31.87;28.43;;;;;;;;;;6186955;23;20158;-83
2024/03/01 07:19:00;;;;;;;32.53;28.37;;;;;;;;;;6186351;23;20177;-81
2024/03/01 07:21:27;;;;;;;32.30;27.57;;;;;;;;;;6210966;23;20193;-82
2024/03/01 07:23:54;;;;;;;30.10;26.83;;;;;;;;;;6212078;23;20189;-81
2024/03/01 07:26:22;;;;;;;30.17;26.03;;;;;;;;;;6212356;23;20212;-82
2024/03/01 07:28:50;;;;;;;30.80;26.20;;;;;;;;;;6212302;23;20229;-79
2024/03/01 07:31:17;;;;;;;27.70;24.70;;;;;;;;;;6212118;23;20169;-80
2024/03/01 07:33:44;;;;;;;29.83;24.13;;;;;;;;;;6210877;23;20169;-81
2024/03/01 07:36:13;;;;;;;27.60;23.80;;;;;;;;;;6210794;23;20180;-81
2024/03/01 07:38:40;;;;;;;27.67;24.73;;;;;;;;;;6210993;23;20165;-80
2024/03/01 07:41:07;;;;;;;27.13;23.53;;;;;;;;;;6185236;23;20175;-79
2024/03/01 07:43:34;;;;;;;25.40;22.60;;;;;;;;;;6212066;23;20744;-79
2024/03/01 07:46:01;;;;;;;27.43;22.53;;;;;;;;;;6210393;23;20482;-81
2024/03/01 07:48:29;;;;;;;25.40;22.70;;;;;;;;;;6210573;23;20189;-81
2024/03/01 07:50:56;;;;;;;25.67;22.20;;;;;;;;;;6212169;23;20604;-84
2024/03/01 07:53:23;;;;;;;25.53;22.80;;;;;;;;;;6212511;23;20272;-79
2024/03/01 07:55:50;;;;;;;26.73;23.07;;;;;;;;;;6212199;23;20165;-80
2024/03/01 07:58:21;;;;;;;25.83;22.50;;;;;;;;;;6210993;23;20200;-81
2024/03/01 08:00:51;;;;;;;24.37;21.77;;;;;;;;;;6210917;23;20190;-80
2024/03/01 08:03:19;;;;;;;24.73;21.93;;;;;;;;;;6213017;23;20150;-80
2024/03/01 08:05:49;;;;;;;24.77;22.17;;;;;;;;;;6211665;23;20162;-79
2024/03/01 08:08:40;;;;;;;23.77;21.27;;;;;;;;;;6211308;23;20243;-80
2024/03/01 08:11:08;;;;;;;24.13;21.53;;;;;;;;;;6210879;23;20202;-80
2024/03/01 08:13:35;;;;;;;37.53;22.10;;;;;;;;;;6211601;23;20189;-80
2024/03/01 08:16:10;;;;;;;22.97;20.57;;;;;;;;;;6212735;23;20165;-81
2024/03/01 08:18:38;;;;;;;23.97;21.30;;;;;;;;;;6212971;23;20154;-81
2024/03/01 08:21:07;;;;;;;26.03;21.27;;;;;;;;;;6212513;23;20194;-82
2024/03/01 08:23:40;;;;;;;25.93;21.73;;;;;;;;;;6212670;23;20221;-80
2024/03/01 08:26:13;;;;;;;23.90;20.73;;;;;;;;;;6211418;23;20179;-81
2024/03/01 08:28:42;;;;;;;23.53;21.03;;;;;;;;;;6213144;23;20151;-80
2024/03/01 08:31:35;;;;;;;23.50;20.13;;;;;;;;;;6212749;23;20163;-83
2024/03/01 08:34:06;;;;;;;22.83;20.33;;;;;;;;;;6197910;23;20222;-80
2024/03/01 08:36:34;;;;;;;23.53;20.33;;;;;;;;;;6211141;23;20179;-82
2024/03/01 08:39:12;;;;;;;23.53;20.60;;;;;;;;;;6211919;23;20195;-80
2024/03/01 08:41:40;;;;;;;26.27;21.27;;;;;;;;;;6212468;23;20649;-82
2024/03/01 08:44:26;;;;;;;23.53;20.67;;;;;;;;;;6211858;23;20193;-80
2024/03/01 08:46:54;;;;;;;22.70;20.30;;;;;;;;;;6212350;23;20167;-80
2024/03/01 08:49:39;;;;;;;23.67;20.77;;;;;;;;;;6212099;23;20170;-81
2024/03/01 08:52:20;;;;;;;22.97;20.23;;;;;;;;;;6212458;23;20596;-81
2024/03/01 08:54:49;;;;;;;23.13;20.20;;;;;;;;;;6186398;23;20165;-80
2024/03/01 08:57:25;;;;;;;22.60;20.13;;;;;;;;;;6210884;23;20198;-81
2024/03/01 08:59:52;;;;;;;23.90;19.87;;;;;;;;;;6211353;23;20241;-81
2024/03/01 09:02:41;;;;;;;25.63;21.70;;;;;;;;;;6212877;23;20143;-81
2024/03/01 09:05:09;;;;;;;23.40;19.97;;;;;;;;;;6211651;23;20237;-80
2024/03/01 09:07:37;;;;;;;21.50;19.30;;;;;;;;;;6212705;23;20808;-80
2024/03/01 09:10:09;;;;;;;22.03;19.47;;;;;;;;;;6217221;23;20413;-80
2024/03/01 09:12:39;;;;;;;20.67;17.87;;;;;;;;;;6244727;23;20147;-81
2024/03/01 09:15:07;;;;;;;21.90;19.50;;;;;;;;;;6218418;23;20558;-80
2024/03/01 09:17:39;;;;;;;23.33;19.97;;;;;;;;;;6244811;23;20174;-80
2024/03/01 09:20:18;;;;;;;22.33;20.03;;;;;;;;;;6218045;23;20190;-82
2024/03/01 09:22:48;;;;;;;24.73;21.30;;;;;;;;;;6244843;23;20148;-81
2024/03/01 09:25:34;;;;;;;21.83;19.37;;;;;;;;;;6216479;23;20240;-80
2024/03/01 09:28:02;;;;;;;23.43;19.60;;;;;;;;;;6243837;23;20158;-81
2024/03/01 09:30:30;;;;;;;55.93;21.97;;;;;;;;;;6243566;23;20191;-81
2024/03/01 09:33:00;;;;;;;44.13;21.40;;;;;;;;;;6216797;23;20594;-79
2024/03/01 09:35:29;;;;;;;30.60;20.40;;;;;;;;;;6243596;23;20164;-82
2024/03/01 09:37:57;;;;;;;23.97;19.07;;;;;;;;;;6217191;23;20200;-81
2024/03/01 09:40:45;;;;;;;22.53;18.47;;;;;;;;;;6243636;23;20159;-80
2024/03/01 09:43:19;;;;;;;20.90;18.67;;;;;;;;;;6216786;23;20260;-82
2024/03/01 09:45:47;;;;;;;20.67;17.50;;;;;;;;;;6243600;23;20229;-79
2024/03/01 09:48:20;;;;;;;22.60;19.47;;;;;;;;;;6243744;23;20192;-80
2024/03/01 09:51:05;;;;;;;21.87;19.63;;;;;;;;;;6216785;23;20164;-80
2024/03/01 09:53:35;;;;;;;22.13;19.23;;;;;;;;;;6216611;23;20635;-80
2024/03/01 09:56:29;;;;;;;22.53;18.63;;;;;;;;;;6242600;23;20204;-80
2024/03/01 09:59:14;;;;;;;21.57;18.67;;;;;;;;;;6243579;23;20189;-80
2024/03/01 10:01:43;;;;;;;21.67;18.97;;;;;;;;;;6243189;23;20662;-81
2024/03/01 10:04:30;;;;;;;21.60;18.83;;;;;;;;;;6243309;23;20192;-80
2024/03/01 10:07:00;;;;;;;21.63;18.60;;;;;;;;;;6243526;23;20145;-80
2024/03/01 10:09:27;;;;;;;21.20;18.80;;;;;;;;;;6243532;23;20236;-80
2024/03/01 10:12:18;;;;;;;21.03;18.53;;;;;;;;;;6242906;23;20253;-82
2024/03/01 10:15:01;;;;;;;21.60;19.20;;;;;;;;;;6243836;23;20180;-79
2024/03/01 10:17:32;;;;;;;23.33;19.43;;;;;;;;;;6243955;23;20599;-81
2024/03/01 10:20:00;;;;;;;23.20;19.40;;;;;;;;;;6243750;23;20192;-81
2024/03/01 10:22:37;;;;;;;22.73;19.80;;;;;;;;;;6218036;23;20171;-81
2024/03/01 10:25:22;;;;;;;22.80;19.17;;;;;;;;;;6217728;23;20183;-81
2024/03/01 10:27:52;;;;;;;21.67;19.23;;;;;;;;;;6218079;23;20248;-81
2024/03/01 10:30:20;;;;;;;23.60;19.70;;;;;;;;;;6244521;23;20232;-81
2024/03/01 10:32:49;;;;;;;23.17;19.07;;;;;;;;;;6189896;23;20243;-80
2024/03/01 10:35:20;;;;;;;21.83;18.63;;;;;;;;;;6189612;23;20175;-81
2024/03/01 10:37:57;;;;;;;21.50;19.20;;;;;;;;;;6242964;23;20163;-80
2024/03/01 10:40:25;;;;;;;24.47;20.23;;;;;;;;;;6192505;23;20197;-80
2024/03/01 10:43:09;;;;;;;22.03;19.67;;;;;;;;;;6244025;23;20144;-81
2024/03/01 10:45:46;;;;;;;22.40;19.87;;;;;;;;;;6243769;23;20268;-82
2024/03/01 10:48:14;;;;;;;24.30;20.57;;;;;;;;;;6217406;23;20188;-83
2024/03/01 10:50:47;;;;;;;22.73;20.43;;;;;;;;;;6217052;23;20167;-81
2024/03/01 10:53:33;;;;;;;25.97;21.13;;;;;;;;;;6217215;23;20724;-82
2024/03/01 10:56:03;;;;;;;22.23;19.83;;;;;;;;;;6216127;23;20206;-82
2024/03/01 10:59:00;;;;;;;23.43;19.90;;;;;;;;;;6193157;23;20297;-82
2024/03/01 11:01:40;;;;;;;21.87;19.57;;;;;;;;;;6241790;23;20181;-80
2024/03/01 11:04:10;;;;;;;24.40;20.27;;;;;;;;;;6244357;23;20158;-81
2024/03/01 11:06:43;;;;;;;25.47;20.63;;;;;;;;;;6217960;23;20167;-81
2024/03/01 11:09:18;;;;;;;24.03;20.67;;;;;;;;;;6244174;23;20236;-80
2024/03/01 11:12:04;;;;;;;24.23;21.60;;;;;;;;;;6216948;23;20197;-82
2024/03/01 11:14:32;;;;;;;22.87;20.33;;;;;;;;;;6243781;23;20159;-82
2024/03/01 11:17:00;;;;;;;24.00;21.37;;;;;;;;;;6191857;23;20174;-80
2024/03/01 11:19:31;;;;;;;24.93;21.47;;;;;;;;;;6216860;23;20178;-81
2024/03/01 11:22:19;;;;;;;24.27;21.37;;;;;;;;;;6216901;23;20171;-80
2024/03/01 11:25:16;;;;;;;26.33;21.80;;;;;;;;;;6216488;23;20193;-81
2024/03/01 11:28:05;;;;;;;25.17;21.43;;;;;;;;;;6240907;23;20177;-81
2024/03/01 11:30:40;;;;;;;25.17;21.37;;;;;;;;;;6244692;23;20163;-82
2024/03/01 11:33:15;;;;;;;25.73;21.17;;;;;;;;;;6219064;23;20609;-86
2024/03/01 11:35:42;;;;;;;24.83;20.90;;;;;;;;;;6217556;23;20179;-81
2024/03/01 11:38:28;;;;;;;24.83;20.97;;;;;;;;;;6217152;23;20208;-81
2024/03/01 11:41:01;;;;;;;25.27;22.67;;;;;;;;;;6215387;23;20194;-82
2024/03/01 11:43:41;;;;;;;24.37;21.77;;;;;;;;;;6242740;23;20163;-81
2024/03/01 11:46:26;;;;;;;26.73;23.13;;;;;;;;;;6216469;23;20226;-81
2024/03/01 11:48:53;;;;;;;25.90;21.77;;;;;;;;;;6243254;23;20164;-80
2024/03/01 11:51:20;;;;;;;25.40;21.63;;;;;;;;;;6215757;23;20163;-81
2024/03/01 11:53:46;;;;;;;29.90;21.73;;;;;;;;;;6242414;23;20635;-80
2024/03/01 11:56:16;;;;;;;24.90;22.13;;;;;;;;;;6215550;23;20259;-82
2024/03/01 11:58:43;;;;;;;24.77;22.17;;;;;;;;;;6242081;23;20170;-82
2024/03/01 12:01:17;;;;;;;24.83;22.27;;;;;;;;;;6241710;23;20194;-80
2024/03/01 12:04:03;;;;;;;28.33;23.13;;;;;;;;;;6215877;23;20174;-81
2024/03/01 12:06:50;;;;;;;24.80;21.73;;;;;;;;;;6215221;23;20186;-82
2024/03/01 12:09:37;;;;;;;24.47;21.87;;;;;;;;;;6216488;23;20170;-82
2024/03/01 12:12:20;;;;;;;24.27;21.77;;;;;;;;;;6241998;23;20228;-82
2024/03/01 12:14:53;;;;;;;24.90;21.87;;;;;;;;;;6215633;23;20171;-80
2024/03/01 12:17:23;;;;;;;26.47;22.37;;;;;;;;;;6241847;23;20171;-80
2024/03/01 12:19:53;;;;;;;26.07;21.97;;;;;;;;;;6215609;23;20174;-80
2024/03/01 12:22:20;;;;;;;25.63;22.77;;;;;;;;;;6242131;23;20165;-81
2024/03/01 12:24:54;;;;;;;24.43;21.83;;;;;;;;;;6217047;23;20187;-80
2024/03/01 12:27:38;;;;;;;24.43;21.60;;;;;;;;;;6191387;23;20180;-80
2024/03/01 12:30:12;;;;;;;27.03;21.80;;;;;;;;;;6214364;23;20203;-81
2024/03/01 12:32:49;;;;;;;24.87;21.93;;;;;;;;;;6215257;23;20173;-81
2024/03/01 12:35:23;;;;;;;28.77;23.17;;;;;;;;;;6216280;23;20228;-80
2024/03/01 12:38:11;;;;;;;27.80;24.03;;;;;;;;;;6218173;23;20166;-81
2024/03/01 12:40:57;;;;;;;25.83;22.90;;;;;;;;;;6244586;23;20597;-81
2024/03/01 12:43:45;;;;;;;25.70;22.83;;;;;;;;;;6218114;23;20167;-83
2024/03/01 12:46:21;;;;;;;28.07;24.90;;;;;;;;;;6217845;23;20527;-81
2024/03/01 12:48:49;;;;;;;28.13;25.13;;;;;;;;;;6193963;23;20173;-81
2024/03/01 12:51:16;;;;;;;30.07;25.90;;;;;;;;;;6243872;23;20171;-81
2024/03/01 12:53:56;;;;;;;28.90;25.37;;;;;;;;;;6218167;23;20620;-81
2024/03/01 12:56:31;;;;;;;32.17;25.53;;;;;;;;;;6217737;23;20173;-80
2024/03/01 12:59:18;;;;;;;29.73;25.47;;;;;;;;;;6244700;23;20227;-81
2024/03/01 13:02:01;;;;;;;28.87;24.53;;;;;;;;;;6244783;23;20174;-81
2024/03/01 13:05:00;;;;;;;27.03;24.27;;;;;;;;;;6244626;23;20204;-82
2024/03/01 13:07:29;;;;;;;26.73;24.00;;;;;;;;;;6138087;23;20329;-82
2024/03/01 13:10:00;;;;;;;28.37;25.37;;;;;;;;;;6217665;23;20174;-82
2024/03/01 13:12:34;;;;;;;27.87;24.93;;;;;;;;;;6244326;23;20173;-82
2024/03/01 13:15:22;;;;;;;27.33;24.43;;;;;;;;;;6244171;23;20159;-80
2024/03/01 13:18:08;;;;;;;28.50;25.50;;;;;;;;;;6217627;23;20247;-80
2024/03/01 13:20:55;;;;;;;27.80;24.97;;;;;;;;;;6217253;23;20186;-80
2024/03/01 13:23:43;;;;;;;28.30;25.27;;;;;;;;;;6243941;23;20162;-82
2024/03/01 13:26:13;;;;;;;29.53;25.67;;;;;;;;;;6243840;23;20190;-80
2024/03/01 13:28:48;;;;;;;27.97;25.20;;;;;;;;;;6217891;23;20255;-82
2024/03/01 13:31:19;;;;;;;30.40;27.07;;;;;;;;;;6244501;23;20246;-80
2024/03/01 13:33:52;;;;;;;30.03;26.97;;;;;;;;;;6217981;23;20178;-82
2024/03/01 13:36:24;;;;;;;28.93;26.03;;;;;;;;;;6216984;23;20171;-80
2024/03/01 13:39:14;;;;;;;30.70;26.33;;;;;;;;;;6218461;23;20171;-80
2024/03/01 13:42:06;;;;;;;29.53;26.43;;;;;;;;;;6217479;23;20186;-81
2024/03/01 13:44:36;;;;;;;29.50;26.27;;;;;;;;;;6178250;23;20170;-81
2024/03/01 13:47:15;;;;;;;30.17;26.80;;;;;;;;;;6217092;23;20167;-83
2024/03/01 13:49:49;;;;;;;28.87;25.83;;;;;;;;;;6217534;23;20165;-84
2024/03/01 13:52:16;;;;;;;29.37;26.27;;;;;;;;;;6192409;23;20181;-82
2024/03/01 13:54:43;;;;;;;30.90;27.70;;;;;;;;;;6217551;23;20208;-81
2024/03/01 13:57:20;;;;;;;30.57;27.33;;;;;;;;;;6193004;23;20166;-81
2024/03/01 13:59:52;;;;;;;31.17;26.23;;;;;;;;;;6243816;23;20225;-80
2024/03/01 14:02:27;;;;;;;30.97;26.37;;;;;;;;;;6216624;23;20227;-83
2024/03/01 14:05:01;;;;;;;29.70;26.63;;;;;;;;;;6243911;23;20603;-80
2024/03/01 14:07:28;;;;;;;29.17;26.07;;;;;;;;;;6243635;23;20173;-80
2024/03/01 14:09:57;;;;;;;29.00;25.90;;;;;;;;;;6216799;23;20644;-80
2024/03/01 14:12:25;;;;;;;28.90;25.80;;;;;;;;;;6186379;23;20171;-82
2024/03/01 14:14:52;;;;;;;27.87;24.97;;;;;;;;;;6186119;23;20174;-81
2024/03/01 14:17:19;;;;;;;28.53;25.47;;;;;;;;;;6186030;23;20193;-81
2024/03/01 14:19:45;;;;;;;27.93;24.90;;;;;;;;;;6186341;23;20166;-83
2024/03/01 14:22:17;;;;;;;29.70;26.50;;;;;;;;;;6186774;23;20180;-81
2024/03/01 14:24:48;;;;;;;35.03;30.80;;;;;;;;;;6186584;23;20177;-80
2024/03/01 14:27:15;;;;;;;47.47;36.77;;;;;;;;;;6186784;23;20162;-83
2024/03/01 14:29:45;;;;;;;43.60;33.50;;;;;;;;;;6213219;23;20196;-82
2024/03/01 14:32:14;;;;;;;29.27;26.13;;;;;;;;;;6186749;23;20263;-83
2024/03/01 14:34:42;;;;;;;30.90;27.67;;;;;;;;;;6186700;23;20178;-81
2024/03/01 14:37:23;;;;;;;32.97;29.43;;;;;;;;;;6186630;23;20227;-82
2024/03/01 14:39:50;;;;;;;32.87;29.43;;;;;;;;;;6187045;23;20509;-83
2024/03/01 14:42:23;;;;;;;31.10;27.30;;;;;;;;;;6186627;23;20173;-82